sensor_id;sensor_type;location;lat;lon;timestamp;P1;durP1;ratioP1;P2;durP2;ratioP2
43819;SDS011;59678;52.476;6.046;2022-08-19T00:01:06;56.30;;;52.45;;
43819;SDS011;59678;52.476;6.046;2022-08-19T00:03:32;51.22;;;47.70;;
43819;SDS011;59678;52.476;6.046;2022-08-19T00:05:58;50.35;;;46.95;;
43819;SDS011;59678;52.476;6.046;2022-08-19T00:08:24;53.78;;;49.75;;
43819;SDS011;59678;52.476;6.046;2022-08-19T00:10:51;50.55;;;46.65;;
43819;SDS011;59678;52.476;6.046;2022-08-19T00:13:17;56.20;;;52.47;;
43819;SDS011;59678;52.476;6.046;2022-08-19T00:15:43;61.88;;;57.58;;
43819;SDS011;59678;52.476;6.046;2022-08-19T00:18:10;72.75;;;67.93;;
43819;SDS011;59678;52.476;6.046;2022-08-19T00:20:35;90.85;;;84.68;;
43819;SDS011;59678;52.476;6.046;2022-08-19T00:23:01;79.82;;;74.85;;
43819;SDS011;59678;52.476;6.046;2022-08-19T00:25:29;67.50;;;63.17;;
43819;SDS011;59678;52.476;6.046;2022-08-19T00:27:54;80.93;;;75.47;;
43819;SDS011;59678;52.476;6.046;2022-08-19T00:30:21;82.32;;;77.13;;
43819;SDS011;59678;52.476;6.046;2022-08-19T00:32:46;101.20;;;95.00;;
43819;SDS011;59678;52.476;6.046;2022-08-19T00:35:12;92.60;;;86.90;;
43819;SDS011;59678;52.476;6.046;2022-08-19T00:37:37;107.38;;;101.00;;
43819;SDS011;59678;52.476;6.046;2022-08-19T00:40:04;96.10;;;90.35;;
43819;SDS011;59678;52.476;6.046;2022-08-19T00:42:30;117.00;;;110.15;;
43819;SDS011;59678;52.476;6.046;2022-08-19T00:44:56;143.90;;;135.63;;
43819;SDS011;59678;52.476;6.046;2022-08-19T00:47:21;151.57;;;142.93;;
43819;SDS011;59678;52.476;6.046;2022-08-19T00:49:51;165.70;;;156.30;;
43819;SDS011;59678;52.476;6.046;2022-08-19T00:52:20;173.40;;;163.55;;
43819;SDS011;59678;52.476;6.046;2022-08-19T00:54:47;190.07;;;179.25;;
43819;SDS011;59678;52.476;6.046;2022-08-19T00:57:15;185.88;;;175.48;;
43819;SDS011;59678;52.476;6.046;2022-08-19T00:59:42;170.65;;;160.82;;
43819;SDS011;59678;52.476;6.046;2022-08-19T01:02:09;165.10;;;155.50;;
43819;SDS011;59678;52.476;6.046;2022-08-19T01:04:34;170.55;;;160.43;;
43819;SDS011;59678;52.476;6.046;2022-08-19T01:07:00;153.57;;;143.88;;
43819;SDS011;59678;52.476;6.046;2022-08-19T01:09:26;179.07;;;168.52;;
43819;SDS011;59678;52.476;6.046;2022-08-19T01:11:52;173.98;;;163.70;;
43819;SDS011;59678;52.476;6.046;2022-08-19T01:14:17;177.85;;;167.30;;
43819;SDS011;59678;52.476;6.046;2022-08-19T01:16:44;166.57;;;156.23;;
43819;SDS011;59678;52.476;6.046;2022-08-19T01:19:12;175.00;;;164.25;;
43819;SDS011;59678;52.476;6.046;2022-08-19T01:21:42;170.10;;;159.60;;
43819;SDS011;59678;52.476;6.046;2022-08-19T01:24:09;161.40;;;151.35;;
43819;SDS011;59678;52.476;6.046;2022-08-19T01:26:38;170.35;;;160.30;;
43819;SDS011;59678;52.476;6.046;2022-08-19T01:29:04;161.57;;;151.60;;
43819;SDS011;59678;52.476;6.046;2022-08-19T01:31:32;161.85;;;151.80;;
43819;SDS011;59678;52.476;6.046;2022-08-19T01:33:58;154.00;;;144.52;;
43819;SDS011;59678;52.476;6.046;2022-08-19T01:36:27;150.32;;;140.95;;
43819;SDS011;59678;52.476;6.046;2022-08-19T01:38:52;152.95;;;143.25;;
43819;SDS011;59678;52.476;6.046;2022-08-19T01:41:18;146.75;;;137.48;;
43819;SDS011;59678;52.476;6.046;2022-08-19T01:43:44;147.10;;;138.02;;
43819;SDS011;59678;52.476;6.046;2022-08-19T01:46:10;137.40;;;129.18;;
43819;SDS011;59678;52.476;6.046;2022-08-19T01:48:39;140.43;;;131.65;;
43819;SDS011;59678;52.476;6.046;2022-08-19T01:51:05;145.02;;;136.10;;
43819;SDS011;59678;52.476;6.046;2022-08-19T01:53:32;145.18;;;136.20;;
43819;SDS011;59678;52.476;6.046;2022-08-19T01:55:57;148.63;;;139.35;;
43819;SDS011;59678;52.476;6.046;2022-08-19T01:58:24;145.05;;;136.15;;
43819;SDS011;59678;52.476;6.046;2022-08-19T02:00:56;141.75;;;133.13;;
43819;SDS011;59678;52.476;6.046;2022-08-19T02:03:22;137.43;;;128.93;;
43819;SDS011;59678;52.476;6.046;2022-08-19T02:05:53;142.50;;;133.85;;
43819;SDS011;59678;52.476;6.046;2022-08-19T02:08:18;143.23;;;134.35;;
43819;SDS011;59678;52.476;6.046;2022-08-19T02:10:44;151.73;;;141.90;;
43819;SDS011;59678;52.476;6.046;2022-08-19T02:13:10;142.93;;;134.25;;
43819;SDS011;59678;52.476;6.046;2022-08-19T02:15:36;151.30;;;141.73;;
43819;SDS011;59678;52.476;6.046;2022-08-19T02:18:02;151.55;;;142.05;;
43819;SDS011;59678;52.476;6.046;2022-08-19T02:20:27;159.15;;;149.13;;
43819;SDS011;59678;52.476;6.046;2022-08-19T02:22:53;166.70;;;156.23;;
43819;SDS011;59678;52.476;6.046;2022-08-19T02:25:19;155.73;;;145.23;;
43819;SDS011;59678;52.476;6.046;2022-08-19T02:27:44;158.75;;;148.15;;
43819;SDS011;59678;52.476;6.046;2022-08-19T02:30:12;158.88;;;148.77;;
43819;SDS011;59678;52.476;6.046;2022-08-19T02:32:38;136.38;;;127.28;;
43819;SDS011;59678;52.476;6.046;2022-08-19T02:35:04;136.25;;;127.18;;
43819;SDS011;59678;52.476;6.046;2022-08-19T02:37:30;130.70;;;121.72;;
43819;SDS011;59678;52.476;6.046;2022-08-19T02:40:14;146.20;;;136.95;;
43819;SDS011;59678;52.476;6.046;2022-08-19T02:42:40;168.25;;;157.40;;
43819;SDS011;59678;52.476;6.046;2022-08-19T02:45:06;157.32;;;147.20;;
43819;SDS011;59678;52.476;6.046;2022-08-19T02:47:32;159.63;;;148.60;;
43819;SDS011;59678;52.476;6.046;2022-08-19T02:50:00;158.65;;;148.00;;
43819;SDS011;59678;52.476;6.046;2022-08-19T02:52:26;161.15;;;150.68;;
43819;SDS011;59678;52.476;6.046;2022-08-19T02:54:52;157.57;;;147.23;;
43819;SDS011;59678;52.476;6.046;2022-08-19T02:57:18;150.30;;;139.85;;
43819;SDS011;59678;52.476;6.046;2022-08-19T02:59:43;155.15;;;144.45;;
43819;SDS011;59678;52.476;6.046;2022-08-19T03:02:08;152.13;;;141.68;;
43819;SDS011;59678;52.476;6.046;2022-08-19T03:04:34;144.90;;;134.90;;
43819;SDS011;59678;52.476;6.046;2022-08-19T03:06:59;153.40;;;142.88;;
43819;SDS011;59678;52.476;6.046;2022-08-19T03:09:25;151.68;;;141.10;;
43819;SDS011;59678;52.476;6.046;2022-08-19T03:11:50;149.00;;;138.60;;
43819;SDS011;59678;52.476;6.046;2022-08-19T03:14:16;152.98;;;142.18;;
43819;SDS011;59678;52.476;6.046;2022-08-19T03:16:44;154.20;;;143.38;;
43819;SDS011;59678;52.476;6.046;2022-08-19T03:19:10;160.93;;;149.48;;
43819;SDS011;59678;52.476;6.046;2022-08-19T03:21:35;154.68;;;143.52;;
43819;SDS011;59678;52.476;6.046;2022-08-19T03:24:02;150.27;;;139.07;;
43819;SDS011;59678;52.476;6.046;2022-08-19T03:26:28;147.88;;;137.05;;
43819;SDS011;59678;52.476;6.046;2022-08-19T03:28:54;143.95;;;133.23;;
43819;SDS011;59678;52.476;6.046;2022-08-19T03:31:20;148.65;;;137.77;;
43819;SDS011;59678;52.476;6.046;2022-08-19T03:33:48;147.75;;;137.30;;
43819;SDS011;59678;52.476;6.046;2022-08-19T03:36:24;140.43;;;129.93;;
43819;SDS011;59678;52.476;6.046;2022-08-19T03:38:52;136.68;;;126.45;;
43819;SDS011;59678;52.476;6.046;2022-08-19T03:41:39;137.68;;;127.03;;
43819;SDS011;59678;52.476;6.046;2022-08-19T03:44:05;133.35;;;123.35;;
43819;SDS011;59678;52.476;6.046;2022-08-19T03:46:31;140.10;;;129.25;;
43819;SDS011;59678;52.476;6.046;2022-08-19T03:48:57;135.45;;;125.45;;
43819;SDS011;59678;52.476;6.046;2022-08-19T03:51:28;136.55;;;126.30;;
43819;SDS011;59678;52.476;6.046;2022-08-19T03:53:56;138.30;;;127.85;;
43819;SDS011;59678;52.476;6.046;2022-08-19T03:56:22;143.65;;;132.38;;
43819;SDS011;59678;52.476;6.046;2022-08-19T03:58:47;127.10;;;117.10;;
43819;SDS011;59678;52.476;6.046;2022-08-19T04:01:16;136.60;;;125.93;;
43819;SDS011;59678;52.476;6.046;2022-08-19T04:03:43;131.93;;;121.45;;
43819;SDS011;59678;52.476;6.046;2022-08-19T04:06:12;131.82;;;121.03;;
43819;SDS011;59678;52.476;6.046;2022-08-19T04:08:39;123.60;;;114.13;;
43819;SDS011;59678;52.476;6.046;2022-08-19T04:11:06;121.75;;;111.95;;
43819;SDS011;59678;52.476;6.046;2022-08-19T04:13:33;124.18;;;114.28;;
43819;SDS011;59678;52.476;6.046;2022-08-19T04:15:59;126.30;;;115.38;;
43819;SDS011;59678;52.476;6.046;2022-08-19T04:18:24;125.78;;;115.38;;
43819;SDS011;59678;52.476;6.046;2022-08-19T04:20:51;121.90;;;111.82;;
43819;SDS011;59678;52.476;6.046;2022-08-19T04:23:17;121.70;;;111.57;;
43819;SDS011;59678;52.476;6.046;2022-08-19T04:25:43;126.82;;;116.35;;
43819;SDS011;59678;52.476;6.046;2022-08-19T04:28:10;132.55;;;120.63;;
43819;SDS011;59678;52.476;6.046;2022-08-19T04:30:40;125.72;;;114.95;;
43819;SDS011;59678;52.476;6.046;2022-08-19T04:33:06;123.40;;;112.40;;
43819;SDS011;59678;52.476;6.046;2022-08-19T04:35:35;117.53;;;106.97;;
43819;SDS011;59678;52.476;6.046;2022-08-19T04:38:01;123.47;;;112.82;;
43819;SDS011;59678;52.476;6.046;2022-08-19T04:40:27;116.63;;;106.13;;
43819;SDS011;59678;52.476;6.046;2022-08-19T04:43:11;112.70;;;102.70;;
43819;SDS011;59678;52.476;6.046;2022-08-19T04:45:39;113.25;;;103.07;;
43819;SDS011;59678;52.476;6.046;2022-08-19T04:48:04;114.82;;;105.13;;
43819;SDS011;59678;52.476;6.046;2022-08-19T04:50:30;112.13;;;102.15;;
43819;SDS011;59678;52.476;6.046;2022-08-19T04:52:56;117.03;;;106.22;;
43819;SDS011;59678;52.476;6.046;2022-08-19T04:55:21;110.50;;;100.53;;
43819;SDS011;59678;52.476;6.046;2022-08-19T04:57:48;103.55;;;94.03;;
43819;SDS011;59678;52.476;6.046;2022-08-19T05:00:14;90.50;;;81.38;;
43819;SDS011;59678;52.476;6.046;2022-08-19T05:02:39;92.88;;;83.95;;
43819;SDS011;59678;52.476;6.046;2022-08-19T05:05:05;100.32;;;91.53;;
43819;SDS011;59678;52.476;6.046;2022-08-19T05:07:32;63.75;;;57.65;;
43819;SDS011;59678;52.476;6.046;2022-08-19T05:09:57;43.63;;;39.28;;
43819;SDS011;59678;52.476;6.046;2022-08-19T05:12:23;28.75;;;25.20;;
43819;SDS011;59678;52.476;6.046;2022-08-19T05:14:49;22.38;;;17.33;;
43819;SDS011;59678;52.476;6.046;2022-08-19T05:17:14;19.40;;;16.25;;
43819;SDS011;59678;52.476;6.046;2022-08-19T05:19:40;23.73;;;14.73;;
43819;SDS011;59678;52.476;6.046;2022-08-19T05:24:58;20.15;;;13.93;;
43819;SDS011;59678;52.476;6.046;2022-08-19T05:27:25;20.55;;;14.73;;
43819;SDS011;59678;52.476;6.046;2022-08-19T05:29:51;18.73;;;13.82;;
43819;SDS011;59678;52.476;6.046;2022-08-19T05:32:16;18.02;;;13.07;;
43819;SDS011;59678;52.476;6.046;2022-08-19T05:34:42;18.00;;;13.02;;
43819;SDS011;59678;52.476;6.046;2022-08-19T05:37:07;13.60;;;10.82;;
43819;SDS011;59678;52.476;6.046;2022-08-19T05:39:35;16.33;;;11.90;;
43819;SDS011;59678;52.476;6.046;2022-08-19T05:42:02;18.88;;;12.55;;
43819;SDS011;59678;52.476;6.046;2022-08-19T05:44:29;33.70;;;12.38;;
43819;SDS011;59678;52.476;6.046;2022-08-19T05:46:57;15.40;;;10.77;;
43819;SDS011;59678;52.476;6.046;2022-08-19T05:49:22;15.38;;;11.88;;
43819;SDS011;59678;52.476;6.046;2022-08-19T05:51:48;16.02;;;11.23;;
43819;SDS011;59678;52.476;6.046;2022-08-19T05:54:14;16.38;;;11.55;;
43819;SDS011;59678;52.476;6.046;2022-08-19T05:56:40;16.20;;;11.45;;
43819;SDS011;59678;52.476;6.046;2022-08-19T05:59:06;16.08;;;11.45;;
43819;SDS011;59678;52.476;6.046;2022-08-19T06:01:34;13.15;;;10.45;;
43819;SDS011;59678;52.476;6.046;2022-08-19T06:04:00;15.55;;;10.45;;
43819;SDS011;59678;52.476;6.046;2022-08-19T06:06:26;15.55;;;11.13;;
43819;SDS011;59678;52.476;6.046;2022-08-19T06:08:51;13.57;;;10.82;;
43819;SDS011;59678;52.476;6.046;2022-08-19T06:11:21;12.98;;;10.52;;
43819;SDS011;59678;52.476;6.046;2022-08-19T06:13:48;17.02;;;10.82;;
43819;SDS011;59678;52.476;6.046;2022-08-19T06:16:18;13.32;;;10.38;;
43819;SDS011;59678;52.476;6.046;2022-08-19T06:18:48;16.60;;;9.98;;
43819;SDS011;59678;52.476;6.046;2022-08-19T06:21:13;13.75;;;10.38;;
43819;SDS011;59678;52.476;6.046;2022-08-19T06:23:39;12.95;;;10.10;;
43819;SDS011;59678;52.476;6.046;2022-08-19T06:26:05;13.55;;;9.98;;
43819;SDS011;59678;52.476;6.046;2022-08-19T06:28:31;13.35;;;9.23;;
43819;SDS011;59678;52.476;6.046;2022-08-19T06:30:58;12.68;;;9.68;;
43819;SDS011;59678;52.476;6.046;2022-08-19T06:33:24;13.15;;;10.38;;
43819;SDS011;59678;52.476;6.046;2022-08-19T06:35:49;11.88;;;9.15;;
43819;SDS011;59678;52.476;6.046;2022-08-19T06:38:14;11.75;;;9.30;;
43819;SDS011;59678;52.476;6.046;2022-08-19T06:40:40;12.82;;;9.20;;
43819;SDS011;59678;52.476;6.046;2022-08-19T06:43:06;11.98;;;9.07;;
43819;SDS011;59678;52.476;6.046;2022-08-19T06:45:31;11.15;;;9.27;;
43819;SDS011;59678;52.476;6.046;2022-08-19T06:47:57;10.75;;;8.75;;
43819;SDS011;59678;52.476;6.046;2022-08-19T06:50:23;11.15;;;8.65;;
43819;SDS011;59678;52.476;6.046;2022-08-19T06:52:49;12.35;;;9.60;;
43819;SDS011;59678;52.476;6.046;2022-08-19T06:55:14;12.68;;;9.07;;
43819;SDS011;59678;52.476;6.046;2022-08-19T06:57:41;14.27;;;11.02;;
43819;SDS011;59678;52.476;6.046;2022-08-19T07:00:07;14.30;;;10.80;;
43819;SDS011;59678;52.476;6.046;2022-08-19T07:02:36;14.57;;;11.13;;
43819;SDS011;59678;52.476;6.046;2022-08-19T07:05:02;15.63;;;11.68;;
43819;SDS011;59678;52.476;6.046;2022-08-19T07:07:28;16.98;;;11.63;;
43819;SDS011;59678;52.476;6.046;2022-08-19T07:09:54;13.57;;;10.07;;
43819;SDS011;59678;52.476;6.046;2022-08-19T07:12:19;20.08;;;12.88;;
43819;SDS011;59678;52.476;6.046;2022-08-19T07:14:45;21.08;;;16.52;;
43819;SDS011;59678;52.476;6.046;2022-08-19T07:17:11;20.95;;;16.40;;
43819;SDS011;59678;52.476;6.046;2022-08-19T07:19:38;23.52;;;16.67;;
43819;SDS011;59678;52.476;6.046;2022-08-19T07:22:04;25.85;;;16.75;;
43819;SDS011;59678;52.476;6.046;2022-08-19T07:24:30;21.63;;;15.63;;
43819;SDS011;59678;52.476;6.046;2022-08-19T07:26:57;21.73;;;16.67;;
43819;SDS011;59678;52.476;6.046;2022-08-19T07:29:26;28.55;;;19.92;;
43819;SDS011;59678;52.476;6.046;2022-08-19T07:31:52;26.50;;;17.17;;
43819;SDS011;59678;52.476;6.046;2022-08-19T07:34:21;24.92;;;17.90;;
43819;SDS011;59678;52.476;6.046;2022-08-19T07:36:46;25.58;;;19.30;;
43819;SDS011;59678;52.476;6.046;2022-08-19T07:39:17;27.45;;;18.48;;
43819;SDS011;59678;52.476;6.046;2022-08-19T07:41:44;26.33;;;19.83;;
43819;SDS011;59678;52.476;6.046;2022-08-19T07:44:10;25.13;;;19.27;;
43819;SDS011;59678;52.476;6.046;2022-08-19T07:46:38;24.30;;;19.05;;
43819;SDS011;59678;52.476;6.046;2022-08-19T07:49:05;25.65;;;17.85;;
43819;SDS011;59678;52.476;6.046;2022-08-19T07:51:31;25.67;;;16.35;;
43819;SDS011;59678;52.476;6.046;2022-08-19T07:53:57;25.38;;;16.90;;
43819;SDS011;59678;52.476;6.046;2022-08-19T07:56:22;24.23;;;17.60;;
43819;SDS011;59678;52.476;6.046;2022-08-19T07:58:49;24.77;;;17.35;;
43819;SDS011;59678;52.476;6.046;2022-08-19T08:01:20;24.00;;;18.40;;
43819;SDS011;59678;52.476;6.046;2022-08-19T08:03:46;22.08;;;15.43;;
43819;SDS011;59678;52.476;6.046;2022-08-19T08:06:31;21.38;;;16.30;;
43819;SDS011;59678;52.476;6.046;2022-08-19T08:09:17;21.58;;;15.68;;
43819;SDS011;59678;52.476;6.046;2022-08-19T08:11:48;18.02;;;14.07;;
43819;SDS011;59678;52.476;6.046;2022-08-19T08:14:36;18.02;;;13.38;;
43819;SDS011;59678;52.476;6.046;2022-08-19T08:17:00;19.33;;;14.05;;
43819;SDS011;59678;52.476;6.046;2022-08-19T08:19:26;18.73;;;12.27;;
43819;SDS011;59678;52.476;6.046;2022-08-19T08:21:53;14.50;;;11.55;;
43819;SDS011;59678;52.476;6.046;2022-08-19T08:24:20;13.90;;;9.65;;
43819;SDS011;59678;52.476;6.046;2022-08-19T08:26:45;13.95;;;9.25;;
43819;SDS011;59678;52.476;6.046;2022-08-19T08:29:11;15.65;;;9.35;;
43819;SDS011;59678;52.476;6.046;2022-08-19T08:31:42;11.95;;;8.23;;
43819;SDS011;59678;52.476;6.046;2022-08-19T08:34:08;17.13;;;13.38;;
43819;SDS011;59678;52.476;6.046;2022-08-19T08:36:41;19.05;;;13.95;;
43819;SDS011;59678;52.476;6.046;2022-08-19T08:39:14;17.35;;;13.80;;
43819;SDS011;59678;52.476;6.046;2022-08-19T08:41:50;18.87;;;13.90;;
43819;SDS011;59678;52.476;6.046;2022-08-19T08:44:23;19.98;;;12.70;;
43819;SDS011;59678;52.476;6.046;2022-08-19T08:46:50;15.60;;;12.57;;
43819;SDS011;59678;52.476;6.046;2022-08-19T08:52:03;18.60;;;12.68;;
43819;SDS011;59678;52.476;6.046;2022-08-19T08:54:32;17.63;;;13.18;;
43819;SDS011;59678;52.476;6.046;2022-08-19T08:56:58;17.10;;;12.57;;
43819;SDS011;59678;52.476;6.046;2022-08-19T08:59:31;16.67;;;10.45;;
43819;SDS011;59678;52.476;6.046;2022-08-19T09:01:58;18.05;;;12.02;;
43819;SDS011;59678;52.476;6.046;2022-08-19T09:04:24;18.73;;;11.43;;
43819;SDS011;59678;52.476;6.046;2022-08-19T09:07:12;19.92;;;11.38;;
43819;SDS011;59678;52.476;6.046;2022-08-19T09:09:41;18.75;;;13.10;;
43819;SDS011;59678;52.476;6.046;2022-08-19T09:12:16;23.27;;;16.25;;
43819;SDS011;59678;52.476;6.046;2022-08-19T09:14:54;27.10;;;17.35;;
43819;SDS011;59678;52.476;6.046;2022-08-19T09:17:23;25.40;;;18.67;;
43819;SDS011;59678;52.476;6.046;2022-08-19T09:22:26;24.10;;;17.42;;
43819;SDS011;59678;52.476;6.046;2022-08-19T09:24:52;25.45;;;18.25;;
43819;SDS011;59678;52.476;6.046;2022-08-19T09:27:18;27.05;;;20.50;;
43819;SDS011;59678;52.476;6.046;2022-08-19T09:29:44;32.55;;;18.40;;
43819;SDS011;59678;52.476;6.046;2022-08-19T09:32:09;30.27;;;20.73;;
43819;SDS011;59678;52.476;6.046;2022-08-19T09:34:35;33.03;;;20.13;;
43819;SDS011;59678;52.476;6.046;2022-08-19T09:37:01;33.75;;;20.33;;
43819;SDS011;59678;52.476;6.046;2022-08-19T09:39:26;33.08;;;23.45;;
43819;SDS011;59678;52.476;6.046;2022-08-19T09:41:52;32.28;;;22.17;;
43819;SDS011;59678;52.476;6.046;2022-08-19T09:44:18;33.10;;;25.33;;
43819;SDS011;59678;52.476;6.046;2022-08-19T09:46:45;35.72;;;25.08;;
43819;SDS011;59678;52.476;6.046;2022-08-19T09:49:15;33.13;;;25.95;;
43819;SDS011;59678;52.476;6.046;2022-08-19T09:51:40;33.88;;;24.35;;
43819;SDS011;59678;52.476;6.046;2022-08-19T09:54:06;31.73;;;22.52;;
43819;SDS011;59678;52.476;6.046;2022-08-19T09:56:32;37.90;;;25.15;;
43819;SDS011;59678;52.476;6.046;2022-08-19T09:58:58;38.65;;;22.35;;
43819;SDS011;59678;52.476;6.046;2022-08-19T10:01:25;26.25;;;18.30;;
43819;SDS011;59678;52.476;6.046;2022-08-19T10:03:54;36.17;;;23.70;;
43819;SDS011;59678;52.476;6.046;2022-08-19T10:06:20;33.28;;;25.27;;
43819;SDS011;59678;52.476;6.046;2022-08-19T10:08:46;34.67;;;23.45;;
43819;SDS011;59678;52.476;6.046;2022-08-19T10:11:13;29.23;;;19.23;;
43819;SDS011;59678;52.476;6.046;2022-08-19T10:13:41;31.80;;;23.10;;
43819;SDS011;59678;52.476;6.046;2022-08-19T10:16:09;31.83;;;21.88;;
43819;SDS011;59678;52.476;6.046;2022-08-19T10:18:35;28.88;;;19.02;;
43819;SDS011;59678;52.476;6.046;2022-08-19T10:21:08;35.15;;;25.25;;
43819;SDS011;59678;52.476;6.046;2022-08-19T10:23:34;34.08;;;24.67;;
43819;SDS011;59678;52.476;6.046;2022-08-19T10:26:01;29.98;;;19.08;;
43819;SDS011;59678;52.476;6.046;2022-08-19T10:28:28;30.15;;;19.50;;
43819;SDS011;59678;52.476;6.046;2022-08-19T10:30:54;29.63;;;22.00;;
43819;SDS011;59678;52.476;6.046;2022-08-19T10:33:19;30.20;;;19.40;;
43819;SDS011;59678;52.476;6.046;2022-08-19T10:35:44;27.25;;;20.85;;
43819;SDS011;59678;52.476;6.046;2022-08-19T10:38:11;32.30;;;23.35;;
43819;SDS011;59678;52.476;6.046;2022-08-19T10:40:37;27.13;;;19.42;;
43819;SDS011;59678;52.476;6.046;2022-08-19T10:43:03;26.95;;;18.58;;
43819;SDS011;59678;52.476;6.046;2022-08-19T10:45:28;22.70;;;16.90;;
43819;SDS011;59678;52.476;6.046;2022-08-19T10:47:54;22.25;;;15.30;;
43819;SDS011;59678;52.476;6.046;2022-08-19T10:50:19;21.75;;;11.95;;
43819;SDS011;59678;52.476;6.046;2022-08-19T10:53:05;14.57;;;11.07;;
43819;SDS011;59678;52.476;6.046;2022-08-19T10:55:30;15.18;;;10.90;;
43819;SDS011;59678;52.476;6.046;2022-08-19T10:58:15;12.38;;;8.95;;
43819;SDS011;59678;52.476;6.046;2022-08-19T11:00:42;16.33;;;11.70;;
43819;SDS011;59678;52.476;6.046;2022-08-19T11:03:10;20.40;;;14.05;;
43819;SDS011;59678;52.476;6.046;2022-08-19T11:05:36;21.55;;;14.95;;
43819;SDS011;59678;52.476;6.046;2022-08-19T11:08:03;19.00;;;13.95;;
43819;SDS011;59678;52.476;6.046;2022-08-19T11:10:28;25.73;;;13.70;;
43819;SDS011;59678;52.476;6.046;2022-08-19T11:12:54;18.13;;;10.63;;
43819;SDS011;59678;52.476;6.046;2022-08-19T11:15:20;20.95;;;13.25;;
43819;SDS011;59678;52.476;6.046;2022-08-19T11:17:46;19.98;;;12.90;;
43819;SDS011;59678;52.476;6.046;2022-08-19T11:20:12;21.65;;;15.70;;
43819;SDS011;59678;52.476;6.046;2022-08-19T11:22:38;22.33;;;14.50;;
43819;SDS011;59678;52.476;6.046;2022-08-19T11:25:04;21.75;;;13.55;;
43819;SDS011;59678;52.476;6.046;2022-08-19T11:27:29;28.80;;;16.60;;
43819;SDS011;59678;52.476;6.046;2022-08-19T11:29:55;25.90;;;16.33;;
43819;SDS011;59678;52.476;6.046;2022-08-19T11:32:21;25.00;;;15.48;;
43819;SDS011;59678;52.476;6.046;2022-08-19T11:34:46;29.83;;;18.05;;
43819;SDS011;59678;52.476;6.046;2022-08-19T11:37:12;27.23;;;19.13;;
43819;SDS011;59678;52.476;6.046;2022-08-19T11:39:37;23.85;;;15.90;;
43819;SDS011;59678;52.476;6.046;2022-08-19T11:42:05;31.13;;;16.25;;
43819;SDS011;59678;52.476;6.046;2022-08-19T11:44:49;22.33;;;14.35;;
43819;SDS011;59678;52.476;6.046;2022-08-19T11:47:15;27.77;;;16.55;;
43819;SDS011;59678;52.476;6.046;2022-08-19T11:49:41;24.17;;;13.73;;
43819;SDS011;59678;52.476;6.046;2022-08-19T11:52:07;21.33;;;14.63;;
43819;SDS011;59678;52.476;6.046;2022-08-19T11:54:33;22.92;;;15.13;;
43819;SDS011;59678;52.476;6.046;2022-08-19T11:56:58;21.42;;;14.82;;
43819;SDS011;59678;52.476;6.046;2022-08-19T11:59:24;23.52;;;14.13;;
43819;SDS011;59678;52.476;6.046;2022-08-19T12:01:52;24.20;;;15.32;;
43819;SDS011;59678;52.476;6.046;2022-08-19T12:04:17;23.63;;;14.00;;
43819;SDS011;59678;52.476;6.046;2022-08-19T12:06:43;23.73;;;15.32;;
43819;SDS011;59678;52.476;6.046;2022-08-19T12:09:08;26.73;;;15.52;;
43819;SDS011;59678;52.476;6.046;2022-08-19T12:11:35;16.45;;;11.23;;
43819;SDS011;59678;52.476;6.046;2022-08-19T12:14:02;23.50;;;16.02;;
43819;SDS011;59678;52.476;6.046;2022-08-19T12:16:28;22.88;;;14.77;;
43819;SDS011;59678;52.476;6.046;2022-08-19T12:18:54;15.68;;;11.07;;
43819;SDS011;59678;52.476;6.046;2022-08-19T12:21:20;20.98;;;14.45;;
43819;SDS011;59678;52.476;6.046;2022-08-19T12:23:47;22.52;;;15.40;;
43819;SDS011;59678;52.476;6.046;2022-08-19T12:26:12;22.35;;;15.80;;
43819;SDS011;59678;52.476;6.046;2022-08-19T12:28:38;19.95;;;15.40;;
43819;SDS011;59678;52.476;6.046;2022-08-19T12:31:04;24.00;;;16.88;;
43819;SDS011;59678;52.476;6.046;2022-08-19T12:33:30;19.90;;;14.38;;
43819;SDS011;59678;52.476;6.046;2022-08-19T12:36:00;24.05;;;15.65;;
43819;SDS011;59678;52.476;6.046;2022-08-19T12:38:26;22.23;;;15.07;;
43819;SDS011;59678;52.476;6.046;2022-08-19T12:40:52;12.95;;;10.23;;
43819;SDS011;59678;52.476;6.046;2022-08-19T12:43:18;17.45;;;11.63;;
43819;SDS011;59678;52.476;6.046;2022-08-19T12:45:44;23.42;;;16.58;;
43819;SDS011;59678;52.476;6.046;2022-08-19T12:48:10;23.20;;;16.52;;
43819;SDS011;59678;52.476;6.046;2022-08-19T12:50:38;21.40;;;16.10;;
43819;SDS011;59678;52.476;6.046;2022-08-19T12:53:04;22.85;;;15.40;;
43819;SDS011;59678;52.476;6.046;2022-08-19T12:55:30;15.13;;;10.02;;
43819;SDS011;59678;52.476;6.046;2022-08-19T12:57:55;16.80;;;13.32;;
43819;SDS011;59678;52.476;6.046;2022-08-19T13:00:22;15.38;;;10.23;;
43819;SDS011;59678;52.476;6.046;2022-08-19T13:02:48;14.68;;;11.43;;
43819;SDS011;59678;52.476;6.046;2022-08-19T13:05:17;20.25;;;16.15;;
43819;SDS011;59678;52.476;6.046;2022-08-19T13:07:45;19.13;;;13.93;;
43819;SDS011;59678;52.476;6.046;2022-08-19T13:10:12;15.13;;;12.23;;
43819;SDS011;59678;52.476;6.046;2022-08-19T13:12:38;15.00;;;10.18;;
43819;SDS011;59678;52.476;6.046;2022-08-19T13:15:04;14.88;;;10.73;;
43819;SDS011;59678;52.476;6.046;2022-08-19T13:17:30;17.80;;;13.40;;
43819;SDS011;59678;52.476;6.046;2022-08-19T13:19:56;20.77;;;14.30;;
43819;SDS011;59678;52.476;6.046;2022-08-19T13:22:21;14.88;;;11.77;;
43819;SDS011;59678;52.476;6.046;2022-08-19T13:24:47;14.02;;;9.35;;
43819;SDS011;59678;52.476;6.046;2022-08-19T13:27:13;14.18;;;9.63;;
43819;SDS011;59678;52.476;6.046;2022-08-19T13:29:39;21.13;;;12.35;;
43819;SDS011;59678;52.476;6.046;2022-08-19T13:32:24;15.73;;;10.68;;
43819;SDS011;59678;52.476;6.046;2022-08-19T13:35:08;20.50;;;13.68;;
43819;SDS011;59678;52.476;6.046;2022-08-19T13:37:34;17.88;;;13.35;;
43819;SDS011;59678;52.476;6.046;2022-08-19T13:40:19;16.45;;;12.88;;
43819;SDS011;59678;52.476;6.046;2022-08-19T13:42:47;15.60;;;10.82;;
43819;SDS011;59678;52.476;6.046;2022-08-19T13:45:14;15.07;;;9.57;;
43819;SDS011;59678;52.476;6.046;2022-08-19T13:47:40;16.88;;;11.85;;
43819;SDS011;59678;52.476;6.046;2022-08-19T13:50:13;23.67;;;14.80;;
43819;SDS011;59678;52.476;6.046;2022-08-19T13:52:39;17.88;;;11.35;;
43819;SDS011;59678;52.476;6.046;2022-08-19T13:55:05;19.55;;;13.50;;
43819;SDS011;59678;52.476;6.046;2022-08-19T13:57:30;23.75;;;15.30;;
43819;SDS011;59678;52.476;6.046;2022-08-19T13:59:57;24.10;;;14.50;;
43819;SDS011;59678;52.476;6.046;2022-08-19T14:02:23;20.60;;;14.30;;
43819;SDS011;59678;52.476;6.046;2022-08-19T14:04:48;22.38;;;14.30;;
43819;SDS011;59678;52.476;6.046;2022-08-19T14:07:15;24.70;;;16.63;;
43819;SDS011;59678;52.476;6.046;2022-08-19T14:09:41;27.92;;;16.95;;
43819;SDS011;59678;52.476;6.046;2022-08-19T14:12:06;22.95;;;16.25;;
43819;SDS011;59678;52.476;6.046;2022-08-19T14:14:32;24.50;;;16.30;;
43819;SDS011;59678;52.476;6.046;2022-08-19T14:17:01;26.00;;;17.13;;
43819;SDS011;59678;52.476;6.046;2022-08-19T14:19:26;30.20;;;17.80;;
43819;SDS011;59678;52.476;6.046;2022-08-19T14:21:52;24.85;;;17.85;;